sensor_id;sensor_type;location;lat;lon;timestamp;temperature;humidity
70928;SHT31;58587;53.034;18.576;2022-12-29T00:01:57;5.78;91.72
70928;SHT31;58587;53.034;18.576;2022-12-29T00:04:22;5.77;91.63
70928;SHT31;58587;53.034;18.576;2022-12-29T00:06:48;5.75;91.79
70928;SHT31;58587;53.034;18.576;2022-12-29T00:09:15;5.78;91.98
70928;SHT31;58587;53.034;18.576;2022-12-29T00:11:41;5.73;92.08
70928;SHT31;58587;53.034;18.576;2022-12-29T00:14:08;5.77;92.29
70928;SHT31;58587;53.034;18.576;2022-12-29T00:16:52;5.73;92.68
70928;SHT31;58587;53.034;18.576;2022-12-29T00:19:18;5.70;92.53
70928;SHT31;58587;53.034;18.576;2022-12-29T00:22:02;5.69;92.96
70928;SHT31;58587;53.034;18.576;2022-12-29T00:24:46;5.71;93.21
70928;SHT31;58587;53.034;18.576;2022-12-29T00:27:20;5.73;93.14
70928;SHT31;58587;53.034;18.576;2022-12-29T00:30:12;5.73;93.20
70928;SHT31;58587;53.034;18.576;2022-12-29T00:32:57;5.73;93.03
70928;SHT31;58587;53.034;18.576;2022-12-29T00:35:57;5.74;93.12
70928;SHT31;58587;53.034;18.576;2022-12-29T00:38:23;5.71;93.26
70928;SHT31;58587;53.034;18.576;2022-12-29T00:41:06;5.74;93.35
70928;SHT31;58587;53.034;18.576;2022-12-29T00:43:50;5.70;93.44
70928;SHT31;58587;53.034;18.576;2022-12-29T00:46:35;5.73;93.46
70928;SHT31;58587;53.034;18.576;2022-12-29T00:49:01;5.70;93.43
70928;SHT31;58587;53.034;18.576;2022-12-29T00:51:45;5.71;93.60
70928;SHT31;58587;53.034;18.576;2022-12-29T00:54:11;5.70;93.49
70928;SHT31;58587;53.034;18.576;2022-12-29T00:56:36;5.71;93.43
70928;SHT31;58587;53.034;18.576;2022-12-29T00:59:03;5.73;93.61
70928;SHT31;58587;53.034;18.576;2022-12-29T01:01:29;5.73;93.71
70928;SHT31;58587;53.034;18.576;2022-12-29T01:03:54;5.69;93.76
70928;SHT31;58587;53.034;18.576;2022-12-29T01:06:19;5.69;93.86
70928;SHT31;58587;53.034;18.576;2022-12-29T01:08:44;5.69;93.98
70928;SHT31;58587;53.034;18.576;2022-12-29T01:11:11;5.69;94.04
70928;SHT31;58587;53.034;18.576;2022-12-29T01:13:37;5.70;94.18
70928;SHT31;58587;53.034;18.576;2022-12-29T01:16:04;5.64;94.23
70928;SHT31;58587;53.034;18.576;2022-12-29T01:18:30;5.64;94.29
70928;SHT31;58587;53.034;18.576;2022-12-29T01:21:00;5.67;94.50
70928;SHT31;58587;53.034;18.576;2022-12-29T01:23:26;5.64;94.60
70928;SHT31;58587;53.034;18.576;2022-12-29T01:25:52;5.63;94.82
70928;SHT31;58587;53.034;18.576;2022-12-29T01:28:17;5.64;94.69
70928;SHT31;58587;53.034;18.576;2022-12-29T01:30:42;5.63;94.71
70928;SHT31;58587;53.034;18.576;2022-12-29T01:33:08;5.63;94.62
70928;SHT31;58587;53.034;18.576;2022-12-29T01:35:33;5.61;94.67
70928;SHT31;58587;53.034;18.576;2022-12-29T01:37:58;5.67;94.50
70928;SHT31;58587;53.034;18.576;2022-12-29T01:40:24;5.66;94.56
70928;SHT31;58587;53.034;18.576;2022-12-29T01:42:50;5.61;94.52
70928;SHT31;58587;53.034;18.576;2022-12-29T01:45:16;5.63;94.47
70928;SHT31;58587;53.034;18.576;2022-12-29T01:47:52;5.64;94.51
70928;SHT31;58587;53.034;18.576;2022-12-29T01:55:20;5.60;94.46
70928;SHT31;58587;53.034;18.576;2022-12-29T01:57:49;5.60;94.36
70928;SHT31;58587;53.034;18.576;2022-12-29T02:00:16;5.54;94.33
70928;SHT31;58587;53.034;18.576;2022-12-29T02:02:48;5.57;94.32
70928;SHT31;58587;53.034;18.576;2022-12-29T02:07:46;5.56;94.14
70928;SHT31;58587;53.034;18.576;2022-12-29T02:10:13;5.56;93.98
70928;SHT31;58587;53.034;18.576;2022-12-29T02:12:38;5.57;93.96
70928;SHT31;58587;53.034;18.576;2022-12-29T02:15:04;5.56;93.90
70928;SHT31;58587;53.034;18.576;2022-12-29T02:31:41;5.56;93.99
70928;SHT31;58587;53.034;18.576;2022-12-29T02:34:31;5.57;93.88
70928;SHT31;58587;53.034;18.576;2022-12-29T02:37:08;5.54;93.95
70928;SHT31;58587;53.034;18.576;2022-12-29T02:47:51;5.54;93.71
70928;SHT31;58587;53.034;18.576;2022-12-29T02:50:37;5.56;93.73
70928;SHT31;58587;53.034;18.576;2022-12-29T02:53:11;5.56;93.63
70928;SHT31;58587;53.034;18.576;2022-12-29T02:55:37;5.54;93.69
70928;SHT31;58587;53.034;18.576;2022-12-29T02:58:15;5.54;93.62
70928;SHT31;58587;53.034;18.576;2022-12-29T03:01:06;5.50;93.48
70928;SHT31;58587;53.034;18.576;2022-12-29T03:06:39;5.54;93.24
70928;SHT31;58587;53.034;18.576;2022-12-29T03:09:28;5.53;93.06
70928;SHT31;58587;53.034;18.576;2022-12-29T03:11:59;5.54;92.83
70928;SHT31;58587;53.034;18.576;2022-12-29T03:18:13;5.53;92.18
70928;SHT31;58587;53.034;18.576;2022-12-29T03:23:18;5.54;92.17
70928;SHT31;58587;53.034;18.576;2022-12-29T03:25:47;5.54;91.68
70928;SHT31;58587;53.034;18.576;2022-12-29T03:28:32;5.56;91.43
70928;SHT31;58587;53.034;18.576;2022-12-29T03:31:02;5.60;91.14
70928;SHT31;58587;53.034;18.576;2022-12-29T03:33:29;5.59;91.23
70928;SHT31;58587;53.034;18.576;2022-12-29T03:35:59;5.57;91.32
70928;SHT31;58587;53.034;18.576;2022-12-29T03:38:30;5.59;91.24
70928;SHT31;58587;53.034;18.576;2022-12-29T03:40:58;5.59;91.56
70928;SHT31;58587;53.034;18.576;2022-12-29T03:43:25;5.60;91.36
70928;SHT31;58587;53.034;18.576;2022-12-29T03:45:51;5.56;91.58
70928;SHT31;58587;53.034;18.576;2022-12-29T03:48:17;5.56;91.17
70928;SHT31;58587;53.034;18.576;2022-12-29T03:50:42;5.59;90.96
70928;SHT31;58587;53.034;18.576;2022-12-29T03:53:07;5.57;91.31
70928;SHT31;58587;53.034;18.576;2022-12-29T03:55:33;5.56;91.40
70928;SHT31;58587;53.034;18.576;2022-12-29T03:57:58;5.59;91.13
70928;SHT31;58587;53.034;18.576;2022-12-29T04:00:23;5.60;91.53
70928;SHT31;58587;53.034;18.576;2022-12-29T04:02:49;5.60;92.09
70928;SHT31;58587;53.034;18.576;2022-12-29T04:05:14;5.59;92.26
70928;SHT31;58587;53.034;18.576;2022-12-29T04:07:39;5.57;92.37
70928;SHT31;58587;53.034;18.576;2022-12-29T04:10:05;5.57;92.75
70928;SHT31;58587;53.034;18.576;2022-12-29T04:12:30;5.57;92.71
70928;SHT31;58587;53.034;18.576;2022-12-29T04:14:55;5.57;92.56
70928;SHT31;58587;53.034;18.576;2022-12-29T04:17:21;5.56;92.69
70928;SHT31;58587;53.034;18.576;2022-12-29T04:19:46;5.57;92.55
70928;SHT31;58587;53.034;18.576;2022-12-29T04:22:11;5.59;92.53
70928;SHT31;58587;53.034;18.576;2022-12-29T04:24:37;5.54;92.92
70928;SHT31;58587;53.034;18.576;2022-12-29T04:27:02;5.54;92.99
70928;SHT31;58587;53.034;18.576;2022-12-29T04:29:28;5.57;93.03
70928;SHT31;58587;53.034;18.576;2022-12-29T04:31:53;5.57;92.62
70928;SHT31;58587;53.034;18.576;2022-12-29T04:34:18;5.56;93.05
70928;SHT31;58587;53.034;18.576;2022-12-29T04:36:44;5.56;93.29
70928;SHT31;58587;53.034;18.576;2022-12-29T04:39:09;5.56;93.13
70928;SHT31;58587;53.034;18.576;2022-12-29T04:41:34;5.53;93.03
70928;SHT31;58587;53.034;18.576;2022-12-29T04:44:00;5.56;93.23
70928;SHT31;58587;53.034;18.576;2022-12-29T04:46:25;5.56;93.03
70928;SHT31;58587;53.034;18.576;2022-12-29T04:48:50;5.56;93.19
70928;SHT31;58587;53.034;18.576;2022-12-29T04:51:16;5.57;92.66
70928;SHT31;58587;53.034;18.576;2022-12-29T04:53:41;5.54;92.97
70928;SHT31;58587;53.034;18.576;2022-12-29T04:56:07;5.56;92.88
70928;SHT31;58587;53.034;18.576;2022-12-29T04:58:32;5.54;93.12
70928;SHT31;58587;53.034;18.576;2022-12-29T05:00:57;5.57;92.81
70928;SHT31;58587;53.034;18.576;2022-12-29T05:03:23;5.57;92.69
70928;SHT31;58587;53.034;18.576;2022-12-29T05:05:48;5.54;92.88
70928;SHT31;58587;53.034;18.576;2022-12-29T05:08:13;5.57;92.91
70928;SHT31;58587;53.034;18.576;2022-12-29T05:10:39;5.59;92.70
70928;SHT31;58587;53.034;18.576;2022-12-29T05:13:04;5.59;92.63
70928;SHT31;58587;53.034;18.576;2022-12-29T05:15:29;5.64;91.89
70928;SHT31;58587;53.034;18.576;2022-12-29T05:17:55;5.64;92.00
70928;SHT31;58587;53.034;18.576;2022-12-29T05:20:20;5.64;92.01
70928;SHT31;58587;53.034;18.576;2022-12-29T05:22:45;5.67;91.63
70928;SHT31;58587;53.034;18.576;2022-12-29T05:25:11;5.73;91.52
70928;SHT31;58587;53.034;18.576;2022-12-29T05:27:36;5.78;91.09
70928;SHT31;58587;53.034;18.576;2022-12-29T05:30:02;5.75;91.29
70928;SHT31;58587;53.034;18.576;2022-12-29T05:32:28;5.75;91.25
70928;SHT31;58587;53.034;18.576;2022-12-29T05:34:53;5.75;91.57
70928;SHT31;58587;53.034;18.576;2022-12-29T05:37:18;5.75;91.09
70928;SHT31;58587;53.034;18.576;2022-12-29T05:39:44;5.77;90.85
70928;SHT31;58587;53.034;18.576;2022-12-29T05:42:09;5.78;91.12
70928;SHT31;58587;53.034;18.576;2022-12-29T05:44:34;5.81;90.87
70928;SHT31;58587;53.034;18.576;2022-12-29T05:47:00;5.80;90.80
70928;SHT31;58587;53.034;18.576;2022-12-29T05:49:25;5.81;90.65
70928;SHT31;58587;53.034;18.576;2022-12-29T05:51:50;5.83;90.81
70928;SHT31;58587;53.034;18.576;2022-12-29T05:54:16;5.81;90.66
70928;SHT31;58587;53.034;18.576;2022-12-29T05:56:41;5.86;90.57
70928;SHT31;58587;53.034;18.576;2022-12-29T05:59:07;5.87;90.24
70928;SHT31;58587;53.034;18.576;2022-12-29T06:01:32;5.89;90.37
70928;SHT31;58587;53.034;18.576;2022-12-29T06:03:59;5.91;90.28
70928;SHT31;58587;53.034;18.576;2022-12-29T06:06:24;5.91;90.21
70928;SHT31;58587;53.034;18.576;2022-12-29T06:08:49;5.94;89.95
70928;SHT31;58587;53.034;18.576;2022-12-29T06:11:15;5.91;90.38
70928;SHT31;58587;53.034;18.576;2022-12-29T06:13:40;5.97;89.84
70928;SHT31;58587;53.034;18.576;2022-12-29T06:16:06;5.95;90.13
70928;SHT31;58587;53.034;18.576;2022-12-29T06:18:31;5.95;90.11
70928;SHT31;58587;53.034;18.576;2022-12-29T06:21:04;5.94;89.89
70928;SHT31;58587;53.034;18.576;2022-12-29T06:23:29;5.94;89.92
70928;SHT31;58587;53.034;18.576;2022-12-29T06:25:55;5.94;89.87
70928;SHT31;58587;53.034;18.576;2022-12-29T06:28:20;5.98;89.06
70928;SHT31;58587;53.034;18.576;2022-12-29T06:30:46;5.97;89.01
70928;SHT31;58587;53.034;18.576;2022-12-29T06:33:12;6.01;88.94
70928;SHT31;58587;53.034;18.576;2022-12-29T06:35:38;6.00;89.19
70928;SHT31;58587;53.034;18.576;2022-12-29T06:38:03;6.05;88.25
70928;SHT31;58587;53.034;18.576;2022-12-29T06:40:29;6.04;88.82
70928;SHT31;58587;53.034;18.576;2022-12-29T06:42:55;6.04;88.54
70928;SHT31;58587;53.034;18.576;2022-12-29T06:45:20;6.02;88.96
70928;SHT31;58587;53.034;18.576;2022-12-29T06:47:45;6.01;88.58
70928;SHT31;58587;53.034;18.576;2022-12-29T06:50:11;6.04;88.31
70928;SHT31;58587;53.034;18.576;2022-12-29T06:52:36;6.01;88.36
70928;SHT31;58587;53.034;18.576;2022-12-29T06:55:01;6.07;87.89
70928;SHT31;58587;53.034;18.576;2022-12-29T06:57:27;6.08;87.87
70928;SHT31;58587;53.034;18.576;2022-12-29T06:59:52;6.07;87.92
70928;SHT31;58587;53.034;18.576;2022-12-29T07:02:20;6.10;87.32
70928;SHT31;58587;53.034;18.576;2022-12-29T07:04:46;6.08;87.95
70928;SHT31;58587;53.034;18.576;2022-12-29T07:07:11;6.05;87.74
70928;SHT31;58587;53.034;18.576;2022-12-29T07:09:37;6.07;87.60
70928;SHT31;58587;53.034;18.576;2022-12-29T07:12:02;6.10;87.62
70928;SHT31;58587;53.034;18.576;2022-12-29T07:14:27;6.11;87.69
70928;SHT31;58587;53.034;18.576;2022-12-29T07:16:53;6.14;87.40
70928;SHT31;58587;53.034;18.576;2022-12-29T07:19:18;6.18;87.48
70928;SHT31;58587;53.034;18.576;2022-12-29T07:21:43;6.18;87.53
70928;SHT31;58587;53.034;18.576;2022-12-29T07:24:09;6.15;87.74
70928;SHT31;58587;53.034;18.576;2022-12-29T07:26:34;6.22;86.89
70928;SHT31;58587;53.034;18.576;2022-12-29T07:29:01;6.25;86.78
70928;SHT31;58587;53.034;18.576;2022-12-29T07:31:27;6.26;87.13
70928;SHT31;58587;53.034;18.576;2022-12-29T07:33:52;6.29;86.88
70928;SHT31;58587;53.034;18.576;2022-12-29T07:36:17;6.26;86.92
70928;SHT31;58587;53.034;18.576;2022-12-29T07:38:43;6.28;87.25
70928;SHT31;58587;53.034;18.576;2022-12-29T07:41:09;6.29;86.84
70928;SHT31;58587;53.034;18.576;2022-12-29T07:43:34;6.35;86.62
70928;SHT31;58587;53.034;18.576;2022-12-29T07:46:00;6.38;86.40
70928;SHT31;58587;53.034;18.576;2022-12-29T07:48:25;6.41;86.26
70928;SHT31;58587;53.034;18.576;2022-12-29T07:50:50;6.41;86.18
70928;SHT31;58587;53.034;18.576;2022-12-29T07:53:16;6.39;86.70
70928;SHT31;58587;53.034;18.576;2022-12-29T07:55:42;6.41;86.99
70928;SHT31;58587;53.034;18.576;2022-12-29T07:58:07;6.43;86.17
70928;SHT31;58587;53.034;18.576;2022-12-29T08:00:33;6.48;86.00
70928;SHT31;58587;53.034;18.576;2022-12-29T08:02:58;6.52;85.84
70928;SHT31;58587;53.034;18.576;2022-12-29T08:05:24;6.55;86.00
70928;SHT31;58587;53.034;18.576;2022-12-29T08:07:49;6.55;85.75
70928;SHT31;58587;53.034;18.576;2022-12-29T08:10:15;6.57;85.76
70928;SHT31;58587;53.034;18.576;2022-12-29T08:12:41;6.59;85.86
70928;SHT31;58587;53.034;18.576;2022-12-29T08:15:09;6.66;85.41
70928;SHT31;58587;53.034;18.576;2022-12-29T08:17:35;6.72;85.35
70928;SHT31;58587;53.034;18.576;2022-12-29T08:20:01;6.72;85.38
70928;SHT31;58587;53.034;18.576;2022-12-29T08:22:26;6.71;85.74
70928;SHT31;58587;53.034;18.576;2022-12-29T08:24:51;6.69;85.63
70928;SHT31;58587;53.034;18.576;2022-12-29T08:27:17;6.73;85.36
70928;SHT31;58587;53.034;18.576;2022-12-29T08:29:43;6.82;84.85
70928;SHT31;58587;53.034;18.576;2022-12-29T08:32:08;6.83;85.22
70928;SHT31;58587;53.034;18.576;2022-12-29T08:34:34;6.93;84.32
70928;SHT31;58587;53.034;18.576;2022-12-29T08:36:59;6.99;84.40
70928;SHT31;58587;53.034;18.576;2022-12-29T08:39:24;7.01;83.94
70928;SHT31;58587;53.034;18.576;2022-12-29T08:41:50;7.08;83.82
70928;SHT31;58587;53.034;18.576;2022-12-29T08:44:15;7.04;84.07
70928;SHT31;58587;53.034;18.576;2022-12-29T08:46:41;7.04;84.05
70928;SHT31;58587;53.034;18.576;2022-12-29T08:49:06;7.07;83.96
70928;SHT31;58587;53.034;18.576;2022-12-29T08:51:32;7.07;84.41
70928;SHT31;58587;53.034;18.576;2022-12-29T08:53:57;7.14;83.80
70928;SHT31;58587;53.034;18.576;2022-12-29T08:56:23;7.16;83.78
70928;SHT31;58587;53.034;18.576;2022-12-29T08:58:49;7.20;83.40
70928;SHT31;58587;53.034;18.576;2022-12-29T09:01:14;7.27;83.01
70928;SHT31;58587;53.034;18.576;2022-12-29T09:03:40;7.27;83.29
70928;SHT31;58587;53.034;18.576;2022-12-29T09:06:05;7.24;83.56
70928;SHT31;58587;53.034;18.576;2022-12-29T09:08:31;7.32;83.10
70928;SHT31;58587;53.034;18.576;2022-12-29T09:11:08;7.34;83.28
70928;SHT31;58587;53.034;18.576;2022-12-29T09:13:34;7.40;83.28
70928;SHT31;58587;53.034;18.576;2022-12-29T09:15:59;7.47;82.96
70928;SHT31;58587;53.034;18.576;2022-12-29T09:18:25;7.52;82.68
70928;SHT31;58587;53.034;18.576;2022-12-29T09:20:58;7.64;82.52
70928;SHT31;58587;53.034;18.576;2022-12-29T09:23:25;7.72;82.03
70928;SHT31;58587;53.034;18.576;2022-12-29T09:25:50;7.74;81.64
70928;SHT31;58587;53.034;18.576;2022-12-29T09:28:16;7.78;82.27
70928;SHT31;58587;53.034;18.576;2022-12-29T09:30:41;7.75;81.95
70928;SHT31;58587;53.034;18.576;2022-12-29T09:33:06;7.77;81.62
70928;SHT31;58587;53.034;18.576;2022-12-29T09:35:32;7.78;81.47
70928;SHT31;58587;53.034;18.576;2022-12-29T09:37:57;7.75;82.10
70928;SHT31;58587;53.034;18.576;2022-12-29T09:40:31;7.72;81.88
70928;SHT31;58587;53.034;18.576;2022-12-29T09:43:16;7.75;81.77
70928;SHT31;58587;53.034;18.576;2022-12-29T09:48:40;7.77;81.52
70928;SHT31;58587;53.034;18.576;2022-12-29T09:51:12;7.75;81.10
70928;SHT31;58587;53.034;18.576;2022-12-29T09:53:41;7.75;81.22
70928;SHT31;58587;53.034;18.576;2022-12-29T09:56:15;7.75;81.02
70928;SHT31;58587;53.034;18.576;2022-12-29T09:58:45;7.71;81.16
70928;SHT31;58587;53.034;18.576;2022-12-29T10:01:38;7.68;81.41
70928;SHT31;58587;53.034;18.576;2022-12-29T10:04:06;7.75;81.09
70928;SHT31;58587;53.034;18.576;2022-12-29T10:17:49;7.78;80.33
70928;SHT31;58587;53.034;18.576;2022-12-29T10:23:10;7.79;80.57
70928;SHT31;58587;53.034;18.576;2022-12-29T10:25:39;7.82;80.18
70928;SHT31;58587;53.034;18.576;2022-12-29T10:28:21;7.86;80.26
70928;SHT31;58587;53.034;18.576;2022-12-29T10:30:48;7.88;79.95
70928;SHT31;58587;53.034;18.576;2022-12-29T10:33:20;7.86;80.20
70928;SHT31;58587;53.034;18.576;2022-12-29T10:35:49;7.88;80.06
70928;SHT31;58587;53.034;18.576;2022-12-29T10:38:28;7.89;80.09
70928;SHT31;58587;53.034;18.576;2022-12-29T10:41:10;7.89;80.88
70928;SHT31;58587;53.034;18.576;2022-12-29T10:43:48;7.93;80.20
70928;SHT31;58587;53.034;18.576;2022-12-29T10:46:24;7.98;79.61
70928;SHT31;58587;53.034;18.576;2022-12-29T10:48:50;7.93;80.44
70928;SHT31;58587;53.034;18.576;2022-12-29T10:51:37;7.99;79.69
70928;SHT31;58587;53.034;18.576;2022-12-29T10:54:15;7.99;79.78
70928;SHT31;58587;53.034;18.576;2022-12-29T10:56:58;8.01;79.53
70928;SHT31;58587;53.034;18.576;2022-12-29T10:59:29;8.01;79.75
70928;SHT31;58587;53.034;18.576;2022-12-29T11:07:23;7.95;80.18
70928;SHT31;58587;53.034;18.576;2022-12-29T11:09:50;7.96;80.00
70928;SHT31;58587;53.034;18.576;2022-12-29T11:12:24;7.99;79.82
70928;SHT31;58587;53.034;18.576;2022-12-29T11:17:57;8.02;80.09
70928;SHT31;58587;53.034;18.576;2022-12-29T11:22:55;8.02;80.18
70928;SHT31;58587;53.034;18.576;2022-12-29T11:25:21;8.07;80.31
70928;SHT31;58587;53.034;18.576;2022-12-29T11:28:04;8.10;80.13
70928;SHT31;58587;53.034;18.576;2022-12-29T11:30:38;8.21;79.56
70928;SHT31;58587;53.034;18.576;2022-12-29T11:33:04;8.26;79.22
70928;SHT31;58587;53.034;18.576;2022-12-29T11:35:50;8.36;78.82
70928;SHT31;58587;53.034;18.576;2022-12-29T11:38:26;8.40;78.77
70928;SHT31;58587;53.034;18.576;2022-12-29T11:40:55;8.42;78.80
70928;SHT31;58587;53.034;18.576;2022-12-29T11:43:30;8.53;78.75
70928;SHT31;58587;53.034;18.576;2022-12-29T11:45:59;8.60;78.56
70928;SHT31;58587;53.034;18.576;2022-12-29T11:48:29;8.60;78.34
70928;SHT31;58587;53.034;18.576;2022-12-29T11:50:57;8.70;78.42
70928;SHT31;58587;53.034;18.576;2022-12-29T11:53:45;8.74;78.29
70928;SHT31;58587;53.034;18.576;2022-12-29T11:56:14;8.70;78.12
70928;SHT31;58587;53.034;18.576;2022-12-29T11:58:40;8.70;78.04
70928;SHT31;58587;53.034;18.576;2022-12-29T12:01:25;9.04;77.51
70928;SHT31;58587;53.034;18.576;2022-12-29T12:04:07;9.17;77.49
70928;SHT31;58587;53.034;18.576;2022-12-29T12:06:38;9.12;77.22
70928;SHT31;58587;53.034;18.576;2022-12-29T12:09:10;9.34;76.88
70928;SHT31;58587;53.034;18.576;2022-12-29T12:11:40;9.45;75.64
70928;SHT31;58587;53.034;18.576;2022-12-29T12:14:17;9.52;75.77
70928;SHT31;58587;53.034;18.576;2022-12-29T12:17:04;9.50;75.45
70928;SHT31;58587;53.034;18.576;2022-12-29T12:19:48;9.59;75.97
70928;SHT31;58587;53.034;18.576;2022-12-29T12:22:38;9.59;75.52
70928;SHT31;58587;53.034;18.576;2022-12-29T12:25:20;10.68;74.43
70928;SHT31;58587;53.034;18.576;2022-12-29T12:30:30;12.46;66.90
70928;SHT31;58587;53.034;18.576;2022-12-29T12:33:03;13.39;63.63
70928;SHT31;58587;53.034;18.576;2022-12-29T12:38:52;13.85;60.57
70928;SHT31;58587;53.034;18.576;2022-12-29T12:41:28;13.54;61.37
70928;SHT31;58587;53.034;18.576;2022-12-29T12:46:28;12.51;64.38
70928;SHT31;58587;53.034;18.576;2022-12-29T12:54:25;11.86;67.25
70928;SHT31;58587;53.034;18.576;2022-12-29T12:57:00;11.52;67.91
70928;SHT31;58587;53.034;18.576;2022-12-29T12:59:53;11.05;69.85
70928;SHT31;58587;53.034;18.576;2022-12-29T13:02:43;10.94;70.72
70928;SHT31;58587;53.034;18.576;2022-12-29T13:11:02;10.44;72.75
70928;SHT31;58587;53.034;18.576;2022-12-29T13:13:54;10.36;73.15
70928;SHT31;58587;53.034;18.576;2022-12-29T13:19:30;10.10;73.94
70928;SHT31;58587;53.034;18.576;2022-12-29T13:22:09;10.06;74.47
70928;SHT31;58587;53.034;18.576;2022-12-29T13:30:31;9.83;74.99
70928;SHT31;58587;53.034;18.576;2022-12-29T13:33:28;9.72;75.55
70928;SHT31;58587;53.034;18.576;2022-12-29T13:36:13;9.68;75.70
70928;SHT31;58587;53.034;18.576;2022-12-29T13:38:49;9.68;75.62
70928;SHT31;58587;53.034;18.576;2022-12-29T13:41:35;9.59;76.05
70928;SHT31;58587;53.034;18.576;2022-12-29T13:44:03;9.58;76.37
70928;SHT31;58587;53.034;18.576;2022-12-29T13:46:38;9.53;76.40
70928;SHT31;58587;53.034;18.576;2022-12-29T13:49:10;9.45;76.72
70928;SHT31;58587;53.034;18.576;2022-12-29T13:51:42;9.40;76.97
70928;SHT31;58587;53.034;18.576;2022-12-29T13:56:59;9.29;77.51
70928;SHT31;58587;53.034;18.576;2022-12-29T13:59:50;9.21;77.79
70928;SHT31;58587;53.034;18.576;2022-12-29T14:07:49;9.10;78.31
70928;SHT31;58587;53.034;18.576;2022-12-29T14:10:48;9.07;78.50
70928;SHT31;58587;53.034;18.576;2022-12-29T14:13:23;9.00;78.69
70928;SHT31;58587;53.034;18.576;2022-12-29T14:15:52;8.94;78.84
70928;SHT31;58587;53.034;18.576;2022-12-29T14:18:21;8.92;79.02
70928;SHT31;58587;53.034;18.576;2022-12-29T14:21:17;8.88;79.22
70928;SHT31;58587;53.034;18.576;2022-12-29T14:23:46;8.81;79.50
70928;SHT31;58587;53.034;18.576;2022-12-29T14:28:47;8.74;79.66
70928;SHT31;58587;53.034;18.576;2022-12-29T14:36:35;8.64;80.30
70928;SHT31;58587;53.034;18.576;2022-12-29T14:39:01;8.59;80.42
70928;SHT31;58587;53.034;18.576;2022-12-29T14:41:33;8.50;80.77
70928;SHT31;58587;53.034;18.576;2022-12-29T14:47:03;8.42;80.95
70928;SHT31;58587;53.034;18.576;2022-12-29T14:49:33;8.37;81.24
70928;SHT31;58587;53.034;18.576;2022-12-29T14:52:17;8.32;81.54
70928;SHT31;58587;53.034;18.576;2022-12-29T14:54:50;8.29;81.65
70928;SHT31;58587;53.034;18.576;2022-12-29T14:57:22;8.28;81.51
70928;SHT31;58587;53.034;18.576;2022-12-29T14:59:53;8.26;81.84
70928;SHT31;58587;53.034;18.576;2022-12-29T15:02:22;8.23;82.16
70928;SHT31;58587;53.034;18.576;2022-12-29T15:04:48;8.23;82.09
70928;SHT31;58587;53.034;18.576;2022-12-29T15:07:15;8.22;82.34
70928;SHT31;58587;53.034;18.576;2022-12-29T15:09:44;8.23;82.40
70928;SHT31;58587;53.034;18.576;2022-12-29T15:15:21;8.33;82.18
70928;SHT31;58587;53.034;18.576;2022-12-29T15:17:46;8.36;82.15
70928;SHT31;58587;53.034;18.576;2022-12-29T15:20:29;8.34;82.17
70928;SHT31;58587;53.034;18.576;2022-12-29T15:23:02;8.34;82.09
70928;SHT31;58587;53.034;18.576;2022-12-29T15:25:27;8.37;81.84
70928;SHT31;58587;53.034;18.576;2022-12-29T15:27:57;8.40;81.93
70928;SHT31;58587;53.034;18.576;2022-12-29T15:30:24;8.42;81.86
70928;SHT31;58587;53.034;18.576;2022-12-29T15:32:50;8.46;81.58
70928;SHT31;58587;53.034;18.576;2022-12-29T15:35:23;8.46;81.64
70928;SHT31;58587;53.034;18.576;2022-12-29T15:37:49;8.47;81.73
70928;SHT31;58587;53.034;18.576;2022-12-29T15:40:26;8.46;81.59
70928;SHT31;58587;53.034;18.576;2022-12-29T15:43:22;8.47;81.73
70928;SHT31;58587;53.034;18.576;2022-12-29T15:45:50;8.42;81.93
70928;SHT31;58587;53.034;18.576;2022-12-29T15:48:18;8.40;82.06
70928;SHT31;58587;53.034;18.576;2022-12-29T15:50:44;8.39;81.98
70928;SHT31;58587;53.034;18.576;2022-12-29T15:53:15;8.37;82.08
70928;SHT31;58587;53.034;18.576;2022-12-29T15:55:43;8.34;82.10
70928;SHT31;58587;53.034;18.576;2022-12-29T15:58:29;8.36;82.08
70928;SHT31;58587;53.034;18.576;2022-12-29T16:00:57;8.34;82.05
70928;SHT31;58587;53.034;18.576;2022-12-29T16:03:24;8.33;81.98
70928;SHT31;58587;53.034;18.576;2022-12-29T16:06:07;8.30;82.08
70928;SHT31;58587;53.034;18.576;2022-12-29T16:08:36;8.32;81.86
70928;SHT31;58587;53.034;18.576;2022-12-29T16:11:15;8.28;81.88
70928;SHT31;58587;53.034;18.576;2022-12-29T16:13:43;8.29;81.95
70928;SHT31;58587;53.034;18.576;2022-12-29T16:16:22;8.30;81.52
70928;SHT31;58587;53.034;18.576;2022-12-29T16:18:51;8.28;81.55
70928;SHT31;58587;53.034;18.576;2022-12-29T16:21:33;8.25;81.66
70928;SHT31;58587;53.034;18.576;2022-12-29T16:24:02;8.32;81.12
70928;SHT31;58587;53.034;18.576;2022-12-29T16:26:29;8.30;81.44
70928;SHT31;58587;53.034;18.576;2022-12-29T16:28:57;8.33;80.99
70928;SHT31;58587;53.034;18.576;2022-12-29T16:33:57;8.34;81.07
70928;SHT31;58587;53.034;18.576;2022-12-29T16:36:25;8.37;80.72
70928;SHT31;58587;53.034;18.576;2022-12-29T16:38:51;8.42;80.25
70928;SHT31;58587;53.034;18.576;2022-12-29T16:41:31;8.40;80.38
70928;SHT31;58587;53.034;18.576;2022-12-29T16:49:24;8.47;79.65
70928;SHT31;58587;53.034;18.576;2022-12-29T16:51:51;8.43;79.88
70928;SHT31;58587;53.034;18.576;2022-12-29T16:54:23;8.43;79.70
70928;SHT31;58587;53.034;18.576;2022-12-29T16:56:49;8.44;79.66
70928;SHT31;58587;53.034;18.576;2022-12-29T16:59:38;8.44;79.37
70928;SHT31;58587;53.034;18.576;2022-12-29T17:02:07;8.50;79.15
70928;SHT31;58587;53.034;18.576;2022-12-29T17:04:35;8.50;78.99
70928;SHT31;58587;53.034;18.576;2022-12-29T17:07:01;8.52;78.79
70928;SHT31;58587;53.034;18.576;2022-12-29T17:09:28;8.47;79.30
70928;SHT31;58587;53.034;18.576;2022-12-29T17:11:58;8.52;78.59
70928;SHT31;58587;53.034;18.576;2022-12-29T17:17:18;8.49;78.89
70928;SHT31;58587;53.034;18.576;2022-12-29T17:19:51;8.50;78.44
70928;SHT31;58587;53.034;18.576;2022-12-29T17:22:25;8.60;78.07
70928;SHT31;58587;53.034;18.576;2022-12-29T17:24:52;8.59;78.09
70928;SHT31;58587;53.034;18.576;2022-12-29T17:27:41;8.61;77.72
70928;SHT31;58587;53.034;18.576;2022-12-29T17:30:14;8.57;77.97
70928;SHT31;58587;53.034;18.576;2022-12-29T17:32:42;8.53;78.15
70928;SHT31;58587;53.034;18.576;2022-12-29T17:35:16;8.53;78.00
70928;SHT31;58587;53.034;18.576;2022-12-29T17:37:41;8.49;78.41
70928;SHT31;58587;53.034;18.576;2022-12-29T17:40:12;8.52;78.03
70928;SHT31;58587;53.034;18.576;2022-12-29T17:42:42;8.50;78.03
70928;SHT31;58587;53.034;18.576;2022-12-29T17:45:16;8.46;78.51
70928;SHT31;58587;53.034;18.576;2022-12-29T17:47:42;8.42;78.35
70928;SHT31;58587;53.034;18.576;2022-12-29T17:50:19;8.42;78.26
70928;SHT31;58587;53.034;18.576;2022-12-29T17:52:52;8.40;78.12
70928;SHT31;58587;53.034;18.576;2022-12-29T17:55:20;8.33;78.34
70928;SHT31;58587;53.034;18.576;2022-12-29T17:57:45;8.28;78.70